Flight Track Log - Related Links

Times and Time Zones

All times are in EDT time to prevent confusion due to time zone crossing. See the ASQ6068 flight status page for this flight to view local times or setup timezone preferences in your user account.

Time Position Orientation Groundspeed Altitude Reporting Facility
EDT Latitude Longitude Course Direction KTS MPH feet Rate Location/Type
Sun 06:57:34 AM 44.2333 -88.5333 164° South 163 188 2,100  Level KMKE
Sun 06:58:34 AM 44.1833 -88.4667 136° Southeast 205 236 4,500 2,386 Climbing KMKE
Sun 06:59:02 AM 44.1728 -88.4508 133° Southeast 200 230 5,600 2,222 Climbing Chicago Center
Sun 06:59:55 AM 44.1236 -88.4278 161° South 214 246 7,500 1,858 Climbing Minneapolis Center
Sun 07:00:00 AM 43.9577 -88.3705 160° South  Level FlightAware Approximate
Sun 07:00:55 AM 44.0614 -88.4022 164° South 227 261 9,100  Level Minneapolis Center
Sun 07:01:00 AM 43.8843 -88.3338 160° South  Level FlightAware Approximate
Sun 07:01:55 AM 43.9858 -88.3678 162° South 275 316 10,500  Level Minneapolis Center
Sun 07:02:00 AM 43.8093 -88.3037 164° South  Level FlightAware Approximate
Sun 07:02:55 AM 43.8986 -88.3297 163° South 321 369 11,400  Level Minneapolis Center
Sun 07:03:56 AM 43.8047 -88.2892 163° South 346 398 12,500 793 Climbing Minneapolis Center
Sun 07:04:56 AM 43.7044 -88.2458 163° South 368 423 13,000 250 Climbing Minneapolis Center
Sun 07:05:56 AM 43.6019 -88.2019 163° South 378 435 13,000  Level Minneapolis Center
Sun 07:06:46 AM 43.5000 -88.1833 172° South 376 433 13,000  Level KMKE
Sun 07:07:04 AM 43.4778 -88.1794 173° South 384 442 13,000  Level Chicago Center
Sun 07:08:05 AM 43.3689 -88.1706 177° South 386 444 13,000  Level Chicago Center
Sun 07:09:05 AM 43.2600 -88.1617 177° South 388 447 13,000 -100 Level Chicago Center
Sun 07:10:05 AM 43.1517 -88.1550 177° South 387 445 12,800 -545 Descending Chicago Center
Sun 07:11:06 AM 43.0489 -88.1469 177° South 374 430 11,900 -1,041 Descending Chicago Center
Sun 07:12:06 AM 42.9658 -88.1400 176° South 311 358 10,700 -942 Descending Chicago Center
Sun 07:13:07 AM 42.8861 -88.1383 179° South 290 334 10,000 -645 Descending Chicago Center
Sun 07:14:07 AM 42.8050 -88.1522 187° South 292 336 9,400 -744 Descending Chicago Center
Sun 07:15:08 AM 42.7267 -88.1658 187° South 284 327 8,500 -694 Descending Chicago Center
Sun 07:16:08 AM 42.6492 -88.1767 186° South 280 322 8,000 -248 Descending Chicago Center
Sun 07:17:09 AM 42.5731 -88.1836 184° South 275 316 8,000  Level Chicago Center
Sun 07:18:09 AM 42.4989 -88.1736 174° South 269 310 8,000  Level Chicago Center
Sun 07:19:10 AM 42.4233 -88.1792 183° South 275 316 8,000  Level Chicago Center
Sun 07:20:10 AM 42.3550 -88.2289 208° Southwest 278 320 8,000 -49 Level Chicago Center
Sun 07:21:12 AM 42.2828 -88.2517 193° South 271 312 7,900 -393 Descending Chicago Center
Sun 07:22:12 AM 42.2292 -88.2061 148° Southeast 230 265 7,200 -1,000 Descending Chicago Center
Sun 07:23:12 AM 42.1833 -88.1519 139° Southeast 222 255 5,900 -1,289 Descending Chicago Center
Sun 07:24:13 AM 42.1425 -88.1050 140° Southeast 203 234 4,600 -1,211 Descending Chicago Center
Sun 07:25:01 AM 42.1000 -88.0667 146° Southeast 180 207 3,700 -1,049 Descending Chicago TRACON
Sun 07:25:56 AM 42.0667 -88.0333 143° Southeast 183 211 2,800 -843 Descending Chicago TRACON
Sun 07:27:02 AM 42.0333 -87.9833 132° Southeast 133 153 2,000 -727 Descending Chicago TRACON

Login

Don't have an account? Register now (free) for customized features, flight alerts, and more!